sensor_id;sensor_type;location;lat;lon;timestamp;P1;durP1;ratioP1;P2;durP2;ratioP2
51384;SDS011;37478;55.682;37.462;2022-12-07T00:01:10;5.30;;;3.40;;
51384;SDS011;37478;55.682;37.462;2022-12-07T00:03:36;6.97;;;3.40;;
51384;SDS011;37478;55.682;37.462;2022-12-07T00:06:02;3.20;;;2.43;;
51384;SDS011;37478;55.682;37.462;2022-12-07T00:08:28;5.97;;;3.23;;
51384;SDS011;37478;55.682;37.462;2022-12-07T00:10:53;4.97;;;2.77;;
51384;SDS011;37478;55.682;37.462;2022-12-07T00:13:19;5.40;;;2.90;;
51384;SDS011;37478;55.682;37.462;2022-12-07T00:15:44;5.60;;;3.00;;
51384;SDS011;37478;55.682;37.462;2022-12-07T00:18:10;6.03;;;3.40;;
51384;SDS011;37478;55.682;37.462;2022-12-07T00:20:35;9.13;;;3.17;;
51384;SDS011;37478;55.682;37.462;2022-12-07T00:23:01;5.40;;;3.27;;
51384;SDS011;37478;55.682;37.462;2022-12-07T00:25:26;5.57;;;3.43;;
51384;SDS011;37478;55.682;37.462;2022-12-07T00:27:52;9.77;;;4.93;;
51384;SDS011;37478;55.682;37.462;2022-12-07T00:30:17;3.73;;;2.53;;
51384;SDS011;37478;55.682;37.462;2022-12-07T00:32:43;5.83;;;3.17;;
51384;SDS011;37478;55.682;37.462;2022-12-07T00:35:08;3.07;;;2.33;;
51384;SDS011;37478;55.682;37.462;2022-12-07T00:37:33;4.70;;;3.10;;
51384;SDS011;37478;55.682;37.462;2022-12-07T00:39:59;5.33;;;3.20;;
51384;SDS011;37478;55.682;37.462;2022-12-07T00:42:24;5.93;;;2.67;;
51384;SDS011;37478;55.682;37.462;2022-12-07T00:44:49;7.27;;;3.60;;
51384;SDS011;37478;55.682;37.462;2022-12-07T00:47:14;6.27;;;3.40;;
51384;SDS011;37478;55.682;37.462;2022-12-07T00:49:40;5.23;;;3.20;;
51384;SDS011;37478;55.682;37.462;2022-12-07T00:52:05;6.23;;;2.80;;
51384;SDS011;37478;55.682;37.462;2022-12-07T00:54:30;7.20;;;4.63;;
51384;SDS011;37478;55.682;37.462;2022-12-07T00:56:56;4.33;;;2.90;;
51384;SDS011;37478;55.682;37.462;2022-12-07T00:59:21;7.47;;;3.53;;
51384;SDS011;37478;55.682;37.462;2022-12-07T01:01:46;9.33;;;4.17;;
51384;SDS011;37478;55.682;37.462;2022-12-07T01:04:12;8.77;;;3.83;;
51384;SDS011;37478;55.682;37.462;2022-12-07T01:06:37;8.00;;;4.10;;
51384;SDS011;37478;55.682;37.462;2022-12-07T01:09:03;6.97;;;2.90;;
51384;SDS011;37478;55.682;37.462;2022-12-07T01:11:30;8.90;;;3.77;;
51384;SDS011;37478;55.682;37.462;2022-12-07T01:13:56;6.97;;;3.77;;
51384;SDS011;37478;55.682;37.462;2022-12-07T01:16:22;6.27;;;3.37;;
51384;SDS011;37478;55.682;37.462;2022-12-07T01:18:49;5.83;;;3.50;;
51384;SDS011;37478;55.682;37.462;2022-12-07T01:21:18;8.77;;;3.80;;
51384;SDS011;37478;55.682;37.462;2022-12-07T01:23:45;3.57;;;2.40;;
51384;SDS011;37478;55.682;37.462;2022-12-07T01:26:12;12.07;;;4.37;;
51384;SDS011;37478;55.682;37.462;2022-12-07T01:28:37;5.63;;;3.53;;
51384;SDS011;37478;55.682;37.462;2022-12-07T01:31:04;8.47;;;3.30;;
51384;SDS011;37478;55.682;37.462;2022-12-07T01:33:30;6.77;;;3.63;;
51384;SDS011;37478;55.682;37.462;2022-12-07T01:36:06;6.33;;;3.27;;
51384;SDS011;37478;55.682;37.462;2022-12-07T01:38:32;6.07;;;2.80;;
51384;SDS011;37478;55.682;37.462;2022-12-07T01:40:58;9.47;;;3.70;;
51384;SDS011;37478;55.682;37.462;2022-12-07T01:43:24;6.20;;;3.43;;
51384;SDS011;37478;55.682;37.462;2022-12-07T01:45:50;5.73;;;3.30;;
51384;SDS011;37478;55.682;37.462;2022-12-07T01:48:16;7.50;;;3.80;;
51384;SDS011;37478;55.682;37.462;2022-12-07T01:50:44;10.33;;;3.90;;
51384;SDS011;37478;55.682;37.462;2022-12-07T01:53:10;4.67;;;2.67;;
51384;SDS011;37478;55.682;37.462;2022-12-07T01:55:37;7.63;;;2.90;;
51384;SDS011;37478;55.682;37.462;2022-12-07T01:58:03;4.50;;;2.63;;
51384;SDS011;37478;55.682;37.462;2022-12-07T02:00:29;9.33;;;4.27;;
51384;SDS011;37478;55.682;37.462;2022-12-07T02:05:20;6.07;;;2.70;;
51384;SDS011;37478;55.682;37.462;2022-12-07T02:07:45;9.43;;;3.97;;
51384;SDS011;37478;55.682;37.462;2022-12-07T02:10:15;5.53;;;2.90;;
51384;SDS011;37478;55.682;37.462;2022-12-07T02:12:40;6.73;;;2.83;;
51384;SDS011;37478;55.682;37.462;2022-12-07T02:15:07;4.17;;;3.10;;
51384;SDS011;37478;55.682;37.462;2022-12-07T02:17:37;5.27;;;4.43;;
51384;SDS011;37478;55.682;37.462;2022-12-07T02:27:50;5.07;;;3.23;;
51384;SDS011;37478;55.682;37.462;2022-12-07T02:30:19;5.57;;;3.23;;
51384;SDS011;37478;55.682;37.462;2022-12-07T02:32:58;6.13;;;3.03;;
51384;SDS011;37478;55.682;37.462;2022-12-07T02:38:05;6.37;;;3.43;;
51384;SDS011;37478;55.682;37.462;2022-12-07T02:42:59;6.07;;;3.87;;
51384;SDS011;37478;55.682;37.462;2022-12-07T02:45:27;6.67;;;2.50;;
51384;SDS011;37478;55.682;37.462;2022-12-07T02:47:53;5.37;;;3.47;;
51384;SDS011;37478;55.682;37.462;2022-12-07T02:50:21;8.17;;;3.60;;
51384;SDS011;37478;55.682;37.462;2022-12-07T02:52:47;3.43;;;3.03;;
51384;SDS011;37478;55.682;37.462;2022-12-07T02:55:12;9.87;;;4.10;;
51384;SDS011;37478;55.682;37.462;2022-12-07T02:57:53;6.67;;;2.90;;
51384;SDS011;37478;55.682;37.462;2022-12-07T03:00:19;4.20;;;2.97;;
51384;SDS011;37478;55.682;37.462;2022-12-07T03:03:03;5.33;;;3.57;;
51384;SDS011;37478;55.682;37.462;2022-12-07T03:18:27;4.50;;;3.40;;
51384;SDS011;37478;55.682;37.462;2022-12-07T03:20:55;6.13;;;3.20;;
51384;SDS011;37478;55.682;37.462;2022-12-07T03:23:22;5.50;;;2.93;;
51384;SDS011;37478;55.682;37.462;2022-12-07T03:25:49;5.57;;;3.50;;
51384;SDS011;37478;55.682;37.462;2022-12-07T03:28:18;6.33;;;3.83;;
51384;SDS011;37478;55.682;37.462;2022-12-07T03:30:47;4.37;;;3.20;;
51384;SDS011;37478;55.682;37.462;2022-12-07T03:33:19;5.13;;;2.73;;
51384;SDS011;37478;55.682;37.462;2022-12-07T03:35:48;8.50;;;4.20;;
51384;SDS011;37478;55.682;37.462;2022-12-07T03:38:23;7.63;;;3.40;;
51384;SDS011;37478;55.682;37.462;2022-12-07T03:40:52;6.33;;;3.10;;
51384;SDS011;37478;55.682;37.462;2022-12-07T03:43:20;7.33;;;4.00;;
51384;SDS011;37478;55.682;37.462;2022-12-07T03:45:54;7.00;;;3.70;;
51384;SDS011;37478;55.682;37.462;2022-12-07T03:51:04;5.83;;;3.27;;
51384;SDS011;37478;55.682;37.462;2022-12-07T03:55:57;5.80;;;3.30;;
51384;SDS011;37478;55.682;37.462;2022-12-07T03:58:23;4.67;;;2.83;;
51384;SDS011;37478;55.682;37.462;2022-12-07T04:00:49;5.27;;;3.07;;
51384;SDS011;37478;55.682;37.462;2022-12-07T04:03:15;4.30;;;2.63;;
51384;SDS011;37478;55.682;37.462;2022-12-07T04:05:40;6.23;;;2.60;;
51384;SDS011;37478;55.682;37.462;2022-12-07T04:08:06;8.20;;;3.87;;
51384;SDS011;37478;55.682;37.462;2022-12-07T04:10:31;4.90;;;3.30;;
51384;SDS011;37478;55.682;37.462;2022-12-07T04:12:56;5.63;;;2.93;;
51384;SDS011;37478;55.682;37.462;2022-12-07T04:15:22;3.93;;;2.87;;
51384;SDS011;37478;55.682;37.462;2022-12-07T04:17:47;4.00;;;2.33;;
51384;SDS011;37478;55.682;37.462;2022-12-07T04:20:13;5.00;;;3.37;;
51384;SDS011;37478;55.682;37.462;2022-12-07T04:22:39;5.70;;;2.80;;
51384;SDS011;37478;55.682;37.462;2022-12-07T04:25:04;5.80;;;3.37;;
51384;SDS011;37478;55.682;37.462;2022-12-07T04:27:30;3.10;;;2.30;;
51384;SDS011;37478;55.682;37.462;2022-12-07T04:29:55;3.93;;;2.20;;
51384;SDS011;37478;55.682;37.462;2022-12-07T04:32:21;5.33;;;3.60;;
51384;SDS011;37478;55.682;37.462;2022-12-07T04:34:46;6.10;;;3.30;;
51384;SDS011;37478;55.682;37.462;2022-12-07T04:37:11;2.93;;;2.20;;
51384;SDS011;37478;55.682;37.462;2022-12-07T04:39:37;7.50;;;3.43;;
51384;SDS011;37478;55.682;37.462;2022-12-07T04:42:02;9.47;;;3.70;;
51384;SDS011;37478;55.682;37.462;2022-12-07T04:44:28;4.77;;;2.27;;
51384;SDS011;37478;55.682;37.462;2022-12-07T04:46:54;6.13;;;3.63;;
51384;SDS011;37478;55.682;37.462;2022-12-07T04:49:20;4.73;;;2.87;;
51384;SDS011;37478;55.682;37.462;2022-12-07T04:51:45;5.27;;;3.00;;
51384;SDS011;37478;55.682;37.462;2022-12-07T04:54:11;6.07;;;2.67;;
51384;SDS011;37478;55.682;37.462;2022-12-07T04:56:37;9.83;;;4.33;;
51384;SDS011;37478;55.682;37.462;2022-12-07T04:59:03;6.00;;;3.97;;
51384;SDS011;37478;55.682;37.462;2022-12-07T05:01:28;4.57;;;3.10;;
51384;SDS011;37478;55.682;37.462;2022-12-07T05:03:54;9.50;;;4.10;;
51384;SDS011;37478;55.682;37.462;2022-12-07T05:06:19;4.90;;;2.50;;
51384;SDS011;37478;55.682;37.462;2022-12-07T05:08:44;2.70;;;2.20;;
51384;SDS011;37478;55.682;37.462;2022-12-07T05:11:10;8.43;;;4.00;;
51384;SDS011;37478;55.682;37.462;2022-12-07T05:13:55;6.10;;;3.67;;
51384;SDS011;37478;55.682;37.462;2022-12-07T05:16:21;4.03;;;2.37;;
51384;SDS011;37478;55.682;37.462;2022-12-07T05:18:46;3.50;;;2.93;;
51384;SDS011;37478;55.682;37.462;2022-12-07T05:21:11;5.70;;;3.30;;
51384;SDS011;37478;55.682;37.462;2022-12-07T05:23:37;8.43;;;4.33;;
51384;SDS011;37478;55.682;37.462;2022-12-07T05:26:02;7.33;;;3.30;;
51384;SDS011;37478;55.682;37.462;2022-12-07T05:28:27;3.80;;;2.27;;
51384;SDS011;37478;55.682;37.462;2022-12-07T05:30:52;6.40;;;2.93;;
51384;SDS011;37478;55.682;37.462;2022-12-07T05:33:18;6.00;;;3.50;;
51384;SDS011;37478;55.682;37.462;2022-12-07T05:35:43;4.03;;;3.27;;
51384;SDS011;37478;55.682;37.462;2022-12-07T05:38:08;7.73;;;3.20;;
51384;SDS011;37478;55.682;37.462;2022-12-07T05:40:34;5.13;;;2.60;;
51384;SDS011;37478;55.682;37.462;2022-12-07T05:42:59;8.77;;;3.87;;
51384;SDS011;37478;55.682;37.462;2022-12-07T05:45:24;11.50;;;4.00;;
51384;SDS011;37478;55.682;37.462;2022-12-07T05:47:50;4.40;;;3.17;;
51384;SDS011;37478;55.682;37.462;2022-12-07T05:50:15;6.17;;;2.93;;
51384;SDS011;37478;55.682;37.462;2022-12-07T05:52:40;5.97;;;3.00;;
51384;SDS011;37478;55.682;37.462;2022-12-07T05:55:06;9.87;;;3.93;;
51384;SDS011;37478;55.682;37.462;2022-12-07T05:57:32;4.47;;;2.03;;
51384;SDS011;37478;55.682;37.462;2022-12-07T05:59:57;6.57;;;3.70;;
51384;SDS011;37478;55.682;37.462;2022-12-07T06:02:22;4.83;;;2.70;;
51384;SDS011;37478;55.682;37.462;2022-12-07T06:04:47;6.13;;;3.83;;
51384;SDS011;37478;55.682;37.462;2022-12-07T06:07:14;7.43;;;3.13;;
51384;SDS011;37478;55.682;37.462;2022-12-07T06:09:39;3.90;;;3.13;;
51384;SDS011;37478;55.682;37.462;2022-12-07T06:12:05;5.70;;;2.37;;
51384;SDS011;37478;55.682;37.462;2022-12-07T06:14:49;6.27;;;4.13;;
51384;SDS011;37478;55.682;37.462;2022-12-07T06:17:14;7.07;;;3.27;;
51384;SDS011;37478;55.682;37.462;2022-12-07T06:19:40;6.60;;;3.50;;
51384;SDS011;37478;55.682;37.462;2022-12-07T06:22:06;6.53;;;3.57;;
51384;SDS011;37478;55.682;37.462;2022-12-07T06:24:31;5.07;;;3.50;;
51384;SDS011;37478;55.682;37.462;2022-12-07T06:26:57;5.37;;;4.00;;
51384;SDS011;37478;55.682;37.462;2022-12-07T06:29:22;9.73;;;3.83;;
51384;SDS011;37478;55.682;37.462;2022-12-07T06:31:48;7.23;;;3.60;;
51384;SDS011;37478;55.682;37.462;2022-12-07T06:34:14;9.47;;;4.27;;
51384;SDS011;37478;55.682;37.462;2022-12-07T06:36:40;6.13;;;3.07;;
51384;SDS011;37478;55.682;37.462;2022-12-07T06:39:05;7.57;;;4.30;;
51384;SDS011;37478;55.682;37.462;2022-12-07T06:41:31;7.67;;;3.77;;
51384;SDS011;37478;55.682;37.462;2022-12-07T06:43:57;9.77;;;4.80;;
51384;SDS011;37478;55.682;37.462;2022-12-07T06:46:22;8.20;;;3.43;;
51384;SDS011;37478;55.682;37.462;2022-12-07T06:48:47;7.43;;;3.97;;
51384;SDS011;37478;55.682;37.462;2022-12-07T06:51:13;12.90;;;4.03;;
51384;SDS011;37478;55.682;37.462;2022-12-07T06:53:38;9.30;;;4.30;;
51384;SDS011;37478;55.682;37.462;2022-12-07T06:56:04;7.73;;;5.17;;
51384;SDS011;37478;55.682;37.462;2022-12-07T06:58:29;7.53;;;4.50;;
51384;SDS011;37478;55.682;37.462;2022-12-07T07:00:55;7.97;;;3.87;;
51384;SDS011;37478;55.682;37.462;2022-12-07T07:03:20;10.97;;;4.97;;
51384;SDS011;37478;55.682;37.462;2022-12-07T07:05:45;7.10;;;3.43;;
51384;SDS011;37478;55.682;37.462;2022-12-07T07:08:11;9.03;;;5.60;;
51384;SDS011;37478;55.682;37.462;2022-12-07T07:10:36;7.63;;;4.63;;
51384;SDS011;37478;55.682;37.462;2022-12-07T07:13:02;5.60;;;4.27;;
51384;SDS011;37478;55.682;37.462;2022-12-07T07:15:27;10.27;;;5.10;;
51384;SDS011;37478;55.682;37.462;2022-12-07T07:17:53;10.57;;;5.03;;
51384;SDS011;37478;55.682;37.462;2022-12-07T07:20:18;7.83;;;4.03;;
51384;SDS011;37478;55.682;37.462;2022-12-07T07:22:44;9.40;;;4.53;;
51384;SDS011;37478;55.682;37.462;2022-12-07T07:25:09;5.80;;;4.60;;
51384;SDS011;37478;55.682;37.462;2022-12-07T07:27:34;6.33;;;4.17;;
51384;SDS011;37478;55.682;37.462;2022-12-07T07:30:00;9.87;;;5.30;;
51384;SDS011;37478;55.682;37.462;2022-12-07T07:32:25;9.30;;;4.37;;
51384;SDS011;37478;55.682;37.462;2022-12-07T07:34:50;6.07;;;4.83;;
51384;SDS011;37478;55.682;37.462;2022-12-07T07:37:16;6.83;;;4.23;;
51384;SDS011;37478;55.682;37.462;2022-12-07T07:39:41;8.53;;;4.50;;
51384;SDS011;37478;55.682;37.462;2022-12-07T07:42:06;10.73;;;4.83;;
51384;SDS011;37478;55.682;37.462;2022-12-07T07:44:32;8.40;;;4.53;;
51384;SDS011;37478;55.682;37.462;2022-12-07T07:46:58;11.17;;;5.40;;
51384;SDS011;37478;55.682;37.462;2022-12-07T07:49:23;11.27;;;4.10;;
51384;SDS011;37478;55.682;37.462;2022-12-07T07:51:48;7.80;;;4.43;;
51384;SDS011;37478;55.682;37.462;2022-12-07T07:54:14;9.10;;;4.67;;
51384;SDS011;37478;55.682;37.462;2022-12-07T07:56:39;8.77;;;3.63;;
51384;SDS011;37478;55.682;37.462;2022-12-07T07:59:04;9.10;;;4.47;;
51384;SDS011;37478;55.682;37.462;2022-12-07T08:01:30;8.60;;;4.90;;
51384;SDS011;37478;55.682;37.462;2022-12-07T08:03:55;16.03;;;4.93;;
51384;SDS011;37478;55.682;37.462;2022-12-07T08:06:20;8.70;;;4.93;;
51384;SDS011;37478;55.682;37.462;2022-12-07T08:08:46;10.43;;;4.83;;
51384;SDS011;37478;55.682;37.462;2022-12-07T08:11:11;6.17;;;3.27;;
51384;SDS011;37478;55.682;37.462;2022-12-07T08:13:36;8.10;;;4.60;;
51384;SDS011;37478;55.682;37.462;2022-12-07T08:16:06;8.63;;;4.87;;
51384;SDS011;37478;55.682;37.462;2022-12-07T08:18:34;9.20;;;4.60;;
51384;SDS011;37478;55.682;37.462;2022-12-07T08:21:00;9.13;;;3.70;;
51384;SDS011;37478;55.682;37.462;2022-12-07T08:23:28;13.80;;;5.07;;
51384;SDS011;37478;55.682;37.462;2022-12-07T08:25:54;10.13;;;4.97;;
51384;SDS011;37478;55.682;37.462;2022-12-07T08:28:19;9.40;;;4.60;;
51384;SDS011;37478;55.682;37.462;2022-12-07T08:30:44;9.33;;;4.80;;
51384;SDS011;37478;55.682;37.462;2022-12-07T08:33:10;9.77;;;4.70;;
51384;SDS011;37478;55.682;37.462;2022-12-07T08:35:35;9.53;;;6.00;;
51384;SDS011;37478;55.682;37.462;2022-12-07T08:38:01;10.33;;;5.10;;
51384;SDS011;37478;55.682;37.462;2022-12-07T08:40:27;9.60;;;4.87;;
51384;SDS011;37478;55.682;37.462;2022-12-07T08:42:52;11.07;;;5.70;;
51384;SDS011;37478;55.682;37.462;2022-12-07T08:45:18;9.83;;;4.67;;
51384;SDS011;37478;55.682;37.462;2022-12-07T08:48:29;11.40;;;4.80;;
51384;SDS011;37478;55.682;37.462;2022-12-07T08:50:30;12.73;;;5.28;;
51384;SDS011;37478;55.682;37.462;2022-12-07T08:52:57;9.80;;;4.20;;
51384;SDS011;37478;55.682;37.462;2022-12-07T08:55:23;10.87;;;5.40;;
51384;SDS011;37478;55.682;37.462;2022-12-07T08:57:48;16.63;;;5.20;;
51384;SDS011;37478;55.682;37.462;2022-12-07T09:00:14;10.87;;;6.10;;
51384;SDS011;37478;55.682;37.462;2022-12-07T09:02:41;9.17;;;4.60;;
51384;SDS011;37478;55.682;37.462;2022-12-07T09:05:06;7.53;;;4.20;;
51384;SDS011;37478;55.682;37.462;2022-12-07T09:07:32;3.10;;;2.33;;
51384;SDS011;37478;55.682;37.462;2022-12-07T09:09:58;10.37;;;5.03;;
51384;SDS011;37478;55.682;37.462;2022-12-07T09:12:24;8.63;;;4.00;;
51384;SDS011;37478;55.682;37.462;2022-12-07T09:14:50;8.60;;;4.00;;
51384;SDS011;37478;55.682;37.462;2022-12-07T09:17:15;8.87;;;3.00;;
51384;SDS011;37478;55.682;37.462;2022-12-07T09:19:40;8.30;;;4.53;;
51384;SDS011;37478;55.682;37.462;2022-12-07T09:22:07;7.93;;;3.60;;
51384;SDS011;37478;55.682;37.462;2022-12-07T09:24:33;11.23;;;4.60;;
51384;SDS011;37478;55.682;37.462;2022-12-07T09:26:58;7.00;;;4.70;;
51384;SDS011;37478;55.682;37.462;2022-12-07T09:29:23;6.40;;;3.37;;
51384;SDS011;37478;55.682;37.462;2022-12-07T09:31:49;13.27;;;4.30;;
51384;SDS011;37478;55.682;37.462;2022-12-07T09:34:15;4.80;;;3.27;;
51384;SDS011;37478;55.682;37.462;2022-12-07T09:36:40;10.57;;;4.80;;
51384;SDS011;37478;55.682;37.462;2022-12-07T09:39:07;6.23;;;3.20;;
51384;SDS011;37478;55.682;37.462;2022-12-07T09:41:33;10.00;;;4.13;;
51384;SDS011;37478;55.682;37.462;2022-12-07T09:44:05;7.17;;;3.80;;
51384;SDS011;37478;55.682;37.462;2022-12-07T09:46:34;12.57;;;4.73;;
51384;SDS011;37478;55.682;37.462;2022-12-07T09:49:00;8.97;;;3.97;;
51384;SDS011;37478;55.682;37.462;2022-12-07T09:51:25;7.00;;;4.13;;
51384;SDS011;37478;55.682;37.462;2022-12-07T09:53:54;8.87;;;4.50;;
51384;SDS011;37478;55.682;37.462;2022-12-07T09:56:20;5.60;;;3.10;;
51384;SDS011;37478;55.682;37.462;2022-12-07T09:58:46;8.10;;;3.80;;
51384;SDS011;37478;55.682;37.462;2022-12-07T10:01:13;9.77;;;3.83;;
51384;SDS011;37478;55.682;37.462;2022-12-07T10:03:40;8.23;;;3.83;;
51384;SDS011;37478;55.682;37.462;2022-12-07T10:06:07;7.55;;;3.58;;
51384;SDS011;37478;55.682;37.462;2022-12-07T10:08:32;9.02;;;4.07;;
51384;SDS011;37478;55.682;37.462;2022-12-07T10:10:59;7.18;;;4.65;;
51384;SDS011;37478;55.682;37.462;2022-12-07T10:16:04;9.10;;;3.75;;
51384;SDS011;37478;55.682;37.462;2022-12-07T10:23:29;3.83;;;2.60;;
51384;SDS011;37478;55.682;37.462;2022-12-07T10:25:54;9.75;;;4.22;;
51384;SDS011;37478;55.682;37.462;2022-12-07T10:28:20;5.13;;;4.13;;
51384;SDS011;37478;55.682;37.462;2022-12-07T10:30:50;12.13;;;3.90;;
51384;SDS011;37478;55.682;37.462;2022-12-07T10:36:00;13.48;;;5.25;;
51384;SDS011;37478;55.682;37.462;2022-12-07T10:38:34;7.13;;;4.05;;
51384;SDS011;37478;55.682;37.462;2022-12-07T10:41:09;12.70;;;4.87;;
51384;SDS011;37478;55.682;37.462;2022-12-07T10:43:34;9.20;;;3.53;;
51384;SDS011;37478;55.682;37.462;2022-12-07T11:07:07;11.07;;;4.72;;
51384;SDS011;37478;55.682;37.462;2022-12-07T11:09:39;13.38;;;4.68;;
51384;SDS011;37478;55.682;37.462;2022-12-07T11:14:56;6.45;;;3.13;;
51384;SDS011;37478;55.682;37.462;2022-12-07T11:17:35;10.43;;;4.93;;
51384;SDS011;37478;55.682;37.462;2022-12-07T11:22:41;8.95;;;4.57;;
51384;SDS011;37478;55.682;37.462;2022-12-07T11:33:09;11.60;;;4.88;;
51384;SDS011;37478;55.682;37.462;2022-12-07T11:35:49;10.82;;;4.97;;
51384;SDS011;37478;55.682;37.462;2022-12-07T11:38:18;8.02;;;4.22;;
51384;SDS011;37478;55.682;37.462;2022-12-07T11:40:49;14.27;;;5.90;;
51384;SDS011;37478;55.682;37.462;2022-12-07T11:43:31;10.00;;;5.23;;
51384;SDS011;37478;55.682;37.462;2022-12-07T11:46:10;14.80;;;6.17;;
51384;SDS011;37478;55.682;37.462;2022-12-07T11:48:43;9.43;;;3.83;;
51384;SDS011;37478;55.682;37.462;2022-12-07T11:51:10;7.28;;;4.97;;
51384;SDS011;37478;55.682;37.462;2022-12-07T11:53:47;15.33;;;6.83;;
51384;SDS011;37478;55.682;37.462;2022-12-07T11:56:19;14.20;;;5.47;;
51384;SDS011;37478;55.682;37.462;2022-12-07T12:01:26;9.57;;;4.90;;
51384;SDS011;37478;55.682;37.462;2022-12-07T12:03:55;13.63;;;6.07;;
51384;SDS011;37478;55.682;37.462;2022-12-07T12:06:21;11.40;;;5.97;;
51384;SDS011;37478;55.682;37.462;2022-12-07T12:21:15;10.30;;;4.93;;
51384;SDS011;37478;55.682;37.462;2022-12-07T12:26:13;13.13;;;5.37;;
51384;SDS011;37478;55.682;37.462;2022-12-07T12:33:37;10.33;;;5.50;;
51384;SDS011;37478;55.682;37.462;2022-12-07T12:36:16;9.07;;;4.87;;
51384;SDS011;37478;55.682;37.462;2022-12-07T12:39:27;10.73;;;5.60;;
51384;SDS011;37478;55.682;37.462;2022-12-07T12:47:00;12.43;;;5.33;;
51384;SDS011;37478;55.682;37.462;2022-12-07T12:52:45;14.33;;;6.13;;
51384;SDS011;37478;55.682;37.462;2022-12-07T12:54:38;11.80;;;6.17;;
51384;SDS011;37478;55.682;37.462;2022-12-07T13:13:00;16.53;;;6.53;;
51384;SDS011;37478;55.682;37.462;2022-12-07T13:15:39;9.87;;;6.17;;
51384;SDS011;37478;55.682;37.462;2022-12-07T13:20:50;10.30;;;4.50;;
51384;SDS011;37478;55.682;37.462;2022-12-07T13:23:58;12.47;;;6.10;;
51384;SDS011;37478;55.682;37.462;2022-12-07T13:28:40;12.83;;;6.63;;
51384;SDS011;37478;55.682;37.462;2022-12-07T13:33:34;15.03;;;6.20;;
51384;SDS011;37478;55.682;37.462;2022-12-07T13:36:00;11.10;;;6.37;;
51384;SDS011;37478;55.682;37.462;2022-12-07T13:38:29;14.33;;;7.23;;
51384;SDS011;37478;55.682;37.462;2022-12-07T13:41:02;16.17;;;7.10;;
51384;SDS011;37478;55.682;37.462;2022-12-07T13:43:28;26.07;;;7.60;;
51384;SDS011;37478;55.682;37.462;2022-12-07T13:45:57;13.40;;;5.37;;
51384;SDS011;37478;55.682;37.462;2022-12-07T13:48:35;11.73;;;7.13;;
51384;SDS011;37478;55.682;37.462;2022-12-07T13:51:01;14.00;;;7.53;;
51384;SDS011;37478;55.682;37.462;2022-12-07T13:53:27;12.20;;;6.37;;
51384;SDS011;37478;55.682;37.462;2022-12-07T13:55:55;12.00;;;5.23;;
51384;SDS011;37478;55.682;37.462;2022-12-07T13:58:21;13.23;;;6.60;;
51384;SDS011;37478;55.682;37.462;2022-12-07T14:00:47;11.37;;;6.13;;
51384;SDS011;37478;55.682;37.462;2022-12-07T14:05:38;16.23;;;6.50;;
51384;SDS011;37478;55.682;37.462;2022-12-07T14:10:30;9.47;;;5.30;;
51384;SDS011;37478;55.682;37.462;2022-12-07T14:12:56;11.13;;;5.80;;
51384;SDS011;37478;55.682;37.462;2022-12-07T14:15:24;19.10;;;7.33;;
51384;SDS011;37478;55.682;37.462;2022-12-07T14:17:51;15.03;;;6.63;;
51384;SDS011;37478;55.682;37.462;2022-12-07T14:22:57;17.97;;;7.33;;
51384;SDS011;37478;55.682;37.462;2022-12-07T14:25:24;12.40;;;6.90;;
51384;SDS011;37478;55.682;37.462;2022-12-07T14:27:53;14.50;;;6.87;;
51384;SDS011;37478;55.682;37.462;2022-12-07T14:30:21;15.07;;;6.47;;
51384;SDS011;37478;55.682;37.462;2022-12-07T14:32:48;8.30;;;4.87;;
51384;SDS011;37478;55.682;37.462;2022-12-07T14:35:16;12.23;;;6.97;;
51384;SDS011;37478;55.682;37.462;2022-12-07T14:37:42;15.17;;;8.50;;
51384;SDS011;37478;55.682;37.462;2022-12-07T14:40:12;12.07;;;5.93;;
51384;SDS011;37478;55.682;37.462;2022-12-07T14:42:37;12.50;;;6.17;;
51384;SDS011;37478;55.682;37.462;2022-12-07T14:45:03;15.03;;;8.07;;
51384;SDS011;37478;55.682;37.462;2022-12-07T14:47:28;12.77;;;5.67;;
51384;SDS011;37478;55.682;37.462;2022-12-07T14:49:53;9.17;;;5.30;;
51384;SDS011;37478;55.682;37.462;2022-12-07T14:52:20;19.07;;;5.93;;
51384;SDS011;37478;55.682;37.462;2022-12-07T14:54:46;9.23;;;5.17;;
51384;SDS011;37478;55.682;37.462;2022-12-07T14:57:11;15.67;;;7.60;;
51384;SDS011;37478;55.682;37.462;2022-12-07T14:59:37;13.60;;;7.83;;
51384;SDS011;37478;55.682;37.462;2022-12-07T15:02:02;12.30;;;5.07;;
51384;SDS011;37478;55.682;37.462;2022-12-07T15:04:28;17.83;;;8.17;;
51384;SDS011;37478;55.682;37.462;2022-12-07T15:06:57;5.77;;;4.47;;
51384;SDS011;37478;55.682;37.462;2022-12-07T15:09:22;13.23;;;6.67;;
51384;SDS011;37478;55.682;37.462;2022-12-07T15:11:47;14.50;;;7.93;;
51384;SDS011;37478;55.682;37.462;2022-12-07T15:14:13;10.27;;;5.83;;
51384;SDS011;37478;55.682;37.462;2022-12-07T15:16:40;13.80;;;7.73;;
51384;SDS011;37478;55.682;37.462;2022-12-07T15:19:08;16.00;;;8.80;;
51384;SDS011;37478;55.682;37.462;2022-12-07T15:21:35;14.63;;;7.17;;
51384;SDS011;37478;55.682;37.462;2022-12-07T15:24:00;15.67;;;6.40;;
51384;SDS011;37478;55.682;37.462;2022-12-07T15:26:25;12.97;;;7.50;;
51384;SDS011;37478;55.682;37.462;2022-12-07T15:28:52;16.60;;;8.27;;
51384;SDS011;37478;55.682;37.462;2022-12-07T15:31:17;10.27;;;5.97;;
51384;SDS011;37478;55.682;37.462;2022-12-07T15:33:43;17.17;;;7.33;;
51384;SDS011;37478;55.682;37.462;2022-12-07T15:36:08;12.30;;;6.67;;
51384;SDS011;37478;55.682;37.462;2022-12-07T15:38:40;16.60;;;6.93;;
51384;SDS011;37478;55.682;37.462;2022-12-07T15:41:05;17.00;;;6.83;;
51384;SDS011;37478;55.682;37.462;2022-12-07T15:43:30;12.90;;;6.37;;
51384;SDS011;37478;55.682;37.462;2022-12-07T15:46:14;17.40;;;6.07;;
51384;SDS011;37478;55.682;37.462;2022-12-07T15:48:39;11.80;;;6.53;;
51384;SDS011;37478;55.682;37.462;2022-12-07T15:51:05;17.77;;;6.77;;
51384;SDS011;37478;55.682;37.462;2022-12-07T15:53:31;16.40;;;7.73;;
51384;SDS011;37478;55.682;37.462;2022-12-07T15:55:56;11.87;;;5.27;;
51384;SDS011;37478;55.682;37.462;2022-12-07T15:58:22;7.53;;;4.87;;
51384;SDS011;37478;55.682;37.462;2022-12-07T16:00:47;13.67;;;7.37;;
51384;SDS011;37478;55.682;37.462;2022-12-07T16:03:13;16.37;;;8.00;;
51384;SDS011;37478;55.682;37.462;2022-12-07T16:05:38;15.50;;;7.80;;
51384;SDS011;37478;55.682;37.462;2022-12-07T16:08:04;11.33;;;5.93;;
51384;SDS011;37478;55.682;37.462;2022-12-07T16:10:29;15.87;;;5.90;;
51384;SDS011;37478;55.682;37.462;2022-12-07T16:12:54;11.83;;;7.13;;
51384;SDS011;37478;55.682;37.462;2022-12-07T16:15:20;19.23;;;7.13;;
51384;SDS011;37478;55.682;37.462;2022-12-07T16:17:45;17.07;;;7.47;;
51384;SDS011;37478;55.682;37.462;2022-12-07T16:20:11;17.47;;;5.73;;
51384;SDS011;37478;55.682;37.462;2022-12-07T16:22:36;12.87;;;6.57;;
51384;SDS011;37478;55.682;37.462;2022-12-07T16:25:02;13.13;;;5.93;;
51384;SDS011;37478;55.682;37.462;2022-12-07T16:27:27;12.93;;;5.30;;
51384;SDS011;37478;55.682;37.462;2022-12-07T16:29:53;10.27;;;5.37;;
51384;SDS011;37478;55.682;37.462;2022-12-07T16:32:18;14.17;;;6.03;;
51384;SDS011;37478;55.682;37.462;2022-12-07T16:34:43;11.93;;;6.40;;
51384;SDS011;37478;55.682;37.462;2022-12-07T16:37:09;12.70;;;7.83;;
51384;SDS011;37478;55.682;37.462;2022-12-07T16:39:34;18.73;;;8.80;;
51384;SDS011;37478;55.682;37.462;2022-12-07T16:41:59;13.97;;;6.07;;
51384;SDS011;37478;55.682;37.462;2022-12-07T16:44:25;11.20;;;5.60;;
51384;SDS011;37478;55.682;37.462;2022-12-07T16:46:50;10.13;;;6.93;;
51384;SDS011;37478;55.682;37.462;2022-12-07T16:49:16;16.10;;;7.00;;